sensor_id;sensor_type;location;lat;lon;timestamp;pressure;altitude;pressure_sealevel;temperature;humidity
27685;BME280;46113;50.130;8.526;2023-04-21T00:01:26;98793.00;;;5.76;75.03
27685;BME280;46113;50.130;8.526;2023-04-21T00:03:55;98792.88;;;5.79;74.56
27685;BME280;46113;50.130;8.526;2023-04-21T00:06:22;98796.19;;;5.64;76.02
27685;BME280;46113;50.130;8.526;2023-04-21T00:08:49;98792.69;;;5.63;76.33
27685;BME280;46113;50.130;8.526;2023-04-21T00:11:16;98789.66;;;5.72;75.99
27685;BME280;46113;50.130;8.526;2023-04-21T00:13:43;98792.56;;;5.47;77.67
27685;BME280;46113;50.130;8.526;2023-04-21T00:16:10;98794.38;;;5.24;78.54
27685;BME280;46113;50.130;8.526;2023-04-21T00:18:36;98791.13;;;5.59;77.12
27685;BME280;46113;50.130;8.526;2023-04-21T00:21:03;98794.56;;;5.40;78.01
27685;BME280;46113;50.130;8.526;2023-04-21T00:23:30;98796.94;;;5.26;78.24
27685;BME280;46113;50.130;8.526;2023-04-21T00:25:57;98796.66;;;5.53;77.34
27685;BME280;46113;50.130;8.526;2023-04-21T00:28:25;98790.66;;;5.70;76.71
27685;BME280;46113;50.130;8.526;2023-04-21T00:30:51;98795.06;;;5.69;76.67
27685;BME280;46113;50.130;8.526;2023-04-21T00:33:19;98793.69;;;5.61;77.43
27685;BME280;46113;50.130;8.526;2023-04-21T00:35:46;98789.31;;;5.80;76.40
27685;BME280;46113;50.130;8.526;2023-04-21T00:38:13;98798.69;;;5.86;75.77
27685;BME280;46113;50.130;8.526;2023-04-21T00:40:41;98793.31;;;5.49;76.87
27685;BME280;46113;50.130;8.526;2023-04-21T00:43:10;98801.59;;;5.80;76.57
27685;BME280;46113;50.130;8.526;2023-04-21T00:45:37;98803.16;;;5.84;75.72
27685;BME280;46113;50.130;8.526;2023-04-21T00:48:04;98801.81;;;5.94;75.64
27685;BME280;46113;50.130;8.526;2023-04-21T00:50:31;98805.22;;;5.96;75.26
27685;BME280;46113;50.130;8.526;2023-04-21T00:52:58;98806.28;;;5.92;75.53
27685;BME280;46113;50.130;8.526;2023-04-21T00:55:25;98802.38;;;6.01;75.46
27685;BME280;46113;50.130;8.526;2023-04-21T00:57:52;98802.16;;;5.86;75.26
27685;BME280;46113;50.130;8.526;2023-04-21T01:00:20;98803.13;;;5.65;77.21
27685;BME280;46113;50.130;8.526;2023-04-21T01:02:47;98804.06;;;5.83;76.13
27685;BME280;46113;50.130;8.526;2023-04-21T01:05:15;98799.81;;;5.99;75.42
27685;BME280;46113;50.130;8.526;2023-04-21T01:07:43;98801.75;;;5.96;75.45
27685;BME280;46113;50.130;8.526;2023-04-21T01:10:10;98803.25;;;6.02;75.39
27685;BME280;46113;50.130;8.526;2023-04-21T01:12:44;98797.19;;;5.99;74.73
27685;BME280;46113;50.130;8.526;2023-04-21T01:15:11;98806.06;;;5.78;76.49
27685;BME280;46113;50.130;8.526;2023-04-21T01:17:38;98810.84;;;5.89;75.78
27685;BME280;46113;50.130;8.526;2023-04-21T01:20:11;98808.69;;;5.78;75.90
27685;BME280;46113;50.130;8.526;2023-04-21T01:22:40;98809.38;;;5.81;75.96
27685;BME280;46113;50.130;8.526;2023-04-21T01:25:08;98810.03;;;5.67;77.36
27685;BME280;46113;50.130;8.526;2023-04-21T01:27:35;98807.41;;;5.86;76.09
27685;BME280;46113;50.130;8.526;2023-04-21T01:30:03;98811.41;;;5.95;75.70
27685;BME280;46113;50.130;8.526;2023-04-21T01:32:30;98817.06;;;5.67;76.28
27685;BME280;46113;50.130;8.526;2023-04-21T01:34:58;98810.81;;;5.69;76.43
27685;BME280;46113;50.130;8.526;2023-04-21T01:37:28;98814.72;;;5.80;76.22
27685;BME280;46113;50.130;8.526;2023-04-21T01:39:57;98814.44;;;5.86;76.20
27685;BME280;46113;50.130;8.526;2023-04-21T01:42:26;98812.41;;;5.93;75.92
27685;BME280;46113;50.130;8.526;2023-04-21T01:44:54;98816.72;;;5.94;75.55
27685;BME280;46113;50.130;8.526;2023-04-21T01:47:22;98816.03;;;5.90;75.66
27685;BME280;46113;50.130;8.526;2023-04-21T01:49:49;98814.44;;;5.86;75.64
27685;BME280;46113;50.130;8.526;2023-04-21T01:52:17;98812.81;;;5.83;76.17
27685;BME280;46113;50.130;8.526;2023-04-21T01:54:44;98810.91;;;5.87;75.85
27685;BME280;46113;50.130;8.526;2023-04-21T01:57:12;98811.19;;;6.00;75.45
27685;BME280;46113;50.130;8.526;2023-04-21T01:59:39;98804.06;;;6.02;75.22
27685;BME280;46113;50.130;8.526;2023-04-21T02:02:06;98806.41;;;5.89;75.68
27685;BME280;46113;50.130;8.526;2023-04-21T02:04:33;98812.13;;;5.38;78.44
27685;BME280;46113;50.130;8.526;2023-04-21T02:07:00;98807.97;;;5.55;78.12
27685;BME280;46113;50.130;8.526;2023-04-21T02:09:27;98807.81;;;5.16;80.05
27685;BME280;46113;50.130;8.526;2023-04-21T02:11:54;98802.50;;;5.39;79.10
27685;BME280;46113;50.130;8.526;2023-04-21T02:14:25;98808.91;;;5.73;77.85
27685;BME280;46113;50.130;8.526;2023-04-21T02:16:52;98800.63;;;5.82;76.91
27685;BME280;46113;50.130;8.526;2023-04-21T02:19:20;98800.09;;;5.93;76.75
27685;BME280;46113;50.130;8.526;2023-04-21T02:21:47;98799.13;;;5.96;76.11
27685;BME280;46113;50.130;8.526;2023-04-21T02:24:14;98810.53;;;5.95;75.86
27685;BME280;46113;50.130;8.526;2023-04-21T02:26:41;98808.78;;;5.95;75.65
27685;BME280;46113;50.130;8.526;2023-04-21T02:29:08;98808.56;;;6.00;75.54
27685;BME280;46113;50.130;8.526;2023-04-21T02:31:37;98803.31;;;6.00;75.40
27685;BME280;46113;50.130;8.526;2023-04-21T02:34:23;98806.69;;;6.02;75.20
27685;BME280;46113;50.130;8.526;2023-04-21T02:36:50;98806.84;;;5.99;75.61
27685;BME280;46113;50.130;8.526;2023-04-21T02:43:13;98799.97;;;6.16;74.61
27685;BME280;46113;50.130;8.526;2023-04-21T02:45:40;98804.06;;;6.02;74.54
27685;BME280;46113;50.130;8.526;2023-04-21T02:48:07;98804.44;;;5.94;75.59
27685;BME280;46113;50.130;8.526;2023-04-21T02:50:34;98810.19;;;6.03;74.91
27685;BME280;46113;50.130;8.526;2023-04-21T02:53:01;98801.44;;;5.83;75.41
27685;BME280;46113;50.130;8.526;2023-04-21T02:55:27;98814.22;;;5.91;75.75
27685;BME280;46113;50.130;8.526;2023-04-21T02:57:54;98809.56;;;5.97;75.54
27685;BME280;46113;50.130;8.526;2023-04-21T03:00:22;98811.53;;;5.73;76.09
27685;BME280;46113;50.130;8.526;2023-04-21T03:02:49;98810.47;;;5.96;75.27
27685;BME280;46113;50.130;8.526;2023-04-21T03:05:18;98811.75;;;6.07;74.61
27685;BME280;46113;50.130;8.526;2023-04-21T03:07:44;98803.88;;;6.07;75.02
27685;BME280;46113;50.130;8.526;2023-04-21T03:10:11;98802.03;;;6.09;74.27
27685;BME280;46113;50.130;8.526;2023-04-21T03:12:38;98803.78;;;5.89;75.37
27685;BME280;46113;50.130;8.526;2023-04-21T03:15:05;98796.41;;;5.97;75.32
27685;BME280;46113;50.130;8.526;2023-04-21T03:17:33;98782.06;;;6.05;74.58
27685;BME280;46113;50.130;8.526;2023-04-21T03:20:00;98798.81;;;5.83;75.96
27685;BME280;46113;50.130;8.526;2023-04-21T03:22:30;98798.78;;;5.44;77.54
27685;BME280;46113;50.130;8.526;2023-04-21T03:24:57;98800.53;;;5.02;79.67
27685;BME280;46113;50.130;8.526;2023-04-21T03:27:24;98805.66;;;5.26;79.66
27685;BME280;46113;50.130;8.526;2023-04-21T03:29:51;98803.66;;;5.11;80.06
27685;BME280;46113;50.130;8.526;2023-04-21T03:32:18;98806.09;;;5.57;78.22
27685;BME280;46113;50.130;8.526;2023-04-21T03:34:45;98807.72;;;5.39;78.79
27685;BME280;46113;50.130;8.526;2023-04-21T03:37:12;98806.09;;;5.57;77.92
27685;BME280;46113;50.130;8.526;2023-04-21T03:39:39;98804.78;;;5.67;77.69
27685;BME280;46113;50.130;8.526;2023-04-21T03:42:06;98806.13;;;5.76;77.09
27685;BME280;46113;50.130;8.526;2023-04-21T03:44:33;98799.69;;;5.83;77.11
27685;BME280;46113;50.130;8.526;2023-04-21T03:47:00;98800.09;;;5.93;76.42
27685;BME280;46113;50.130;8.526;2023-04-21T03:49:29;98799.97;;;5.96;76.32
27685;BME280;46113;50.130;8.526;2023-04-21T03:51:56;98810.47;;;5.96;76.07
27685;BME280;46113;50.130;8.526;2023-04-21T03:54:22;98800.09;;;5.55;77.79
27685;BME280;46113;50.130;8.526;2023-04-21T03:56:49;98801.25;;;5.48;77.75
27685;BME280;46113;50.130;8.526;2023-04-21T03:59:16;98800.78;;;5.38;78.45
27685;BME280;46113;50.130;8.526;2023-04-21T04:01:43;98809.00;;;5.30;79.07
27685;BME280;46113;50.130;8.526;2023-04-21T04:04:10;98800.44;;;5.47;78.45
27685;BME280;46113;50.130;8.526;2023-04-21T04:06:38;98814.84;;;5.37;78.90
27685;BME280;46113;50.130;8.526;2023-04-21T04:09:04;98807.09;;;5.33;79.47
27685;BME280;46113;50.130;8.526;2023-04-21T04:11:31;98815.28;;;5.67;78.16
27685;BME280;46113;50.130;8.526;2023-04-21T04:13:58;98800.75;;;5.79;77.48
27685;BME280;46113;50.130;8.526;2023-04-21T04:16:25;98805.41;;;5.72;77.15
27685;BME280;46113;50.130;8.526;2023-04-21T04:18:54;98799.75;;;5.82;77.27
27685;BME280;46113;50.130;8.526;2023-04-21T04:21:21;98805.41;;;5.72;77.31
27685;BME280;46113;50.130;8.526;2023-04-21T04:23:49;98803.25;;;5.62;77.89
27685;BME280;46113;50.130;8.526;2023-04-21T04:26:17;98796.34;;;5.80;77.03
27685;BME280;46113;50.130;8.526;2023-04-21T04:28:44;98807.84;;;5.96;76.89
27685;BME280;46113;50.130;8.526;2023-04-21T04:31:11;98806.84;;;5.99;76.48
27685;BME280;46113;50.130;8.526;2023-04-21T04:33:40;98800.91;;;5.95;76.20
27685;BME280;46113;50.130;8.526;2023-04-21T04:36:08;98798.19;;;5.97;76.25
27685;BME280;46113;50.130;8.526;2023-04-21T04:38:37;98803.16;;;5.84;76.19
27685;BME280;46113;50.130;8.526;2023-04-21T04:41:04;98800.53;;;5.84;76.55
27685;BME280;46113;50.130;8.526;2023-04-21T04:43:31;98806.00;;;5.98;76.72
27685;BME280;46113;50.130;8.526;2023-04-21T04:46:07;98809.69;;;6.14;75.82
27685;BME280;46113;50.130;8.526;2023-04-21T04:48:38;98796.22;;;6.21;75.46
27685;BME280;46113;50.130;8.526;2023-04-21T04:51:06;98796.78;;;6.28;74.78
27685;BME280;46113;50.130;8.526;2023-04-21T04:53:33;98791.34;;;6.31;74.65
27685;BME280;46113;50.130;8.526;2023-04-21T04:56:00;98787.25;;;6.25;75.39
27685;BME280;46113;50.130;8.526;2023-04-21T04:58:27;98797.03;;;6.41;74.50
27685;BME280;46113;50.130;8.526;2023-04-21T05:00:54;98796.88;;;6.44;74.60
27685;BME280;46113;50.130;8.526;2023-04-21T05:03:21;98804.94;;;6.03;76.27
27685;BME280;46113;50.130;8.526;2023-04-21T05:05:48;98795.06;;;6.08;76.99
27685;BME280;46113;50.130;8.526;2023-04-21T05:08:15;98794.53;;;6.38;75.11
27685;BME280;46113;50.130;8.526;2023-04-21T05:10:43;98798.75;;;6.60;74.39
27685;BME280;46113;50.130;8.526;2023-04-21T05:13:10;98802.63;;;6.70;73.72
27685;BME280;46113;50.130;8.526;2023-04-21T05:15:37;98796.69;;;6.67;73.80
27685;BME280;46113;50.130;8.526;2023-04-21T05:18:03;98799.91;;;6.91;72.80
27685;BME280;46113;50.130;8.526;2023-04-21T05:20:30;98812.75;;;7.15;71.89
27685;BME280;46113;50.130;8.526;2023-04-21T05:22:57;98813.22;;;7.23;71.24
27685;BME280;46113;50.130;8.526;2023-04-21T05:25:24;98811.16;;;7.46;71.00
27685;BME280;46113;50.130;8.526;2023-04-21T05:27:51;98810.81;;;7.18;71.62
27685;BME280;46113;50.130;8.526;2023-04-21T05:30:18;98801.69;;;7.60;70.05
27685;BME280;46113;50.130;8.526;2023-04-21T05:32:45;98805.53;;;7.01;71.68
27685;BME280;46113;50.130;8.526;2023-04-21T05:35:12;98809.09;;;7.00;72.86
27685;BME280;46113;50.130;8.526;2023-04-21T05:37:39;98805.50;;;6.83;73.71
27685;BME280;46113;50.130;8.526;2023-04-21T05:40:06;98800.34;;;6.99;73.81
27685;BME280;46113;50.130;8.526;2023-04-21T05:42:33;98802.09;;;7.18;72.35
27685;BME280;46113;50.130;8.526;2023-04-21T05:44:59;98794.00;;;7.73;69.88
27685;BME280;46113;50.130;8.526;2023-04-21T05:47:26;98795.28;;;7.81;69.50
27685;BME280;46113;50.130;8.526;2023-04-21T05:49:53;98790.13;;;8.12;68.35
27685;BME280;46113;50.130;8.526;2023-04-21T05:52:20;98787.59;;;8.27;67.48
27685;BME280;46113;50.130;8.526;2023-04-21T05:54:47;98801.84;;;8.06;68.86
27685;BME280;46113;50.130;8.526;2023-04-21T05:57:16;98796.00;;;8.01;70.63
27685;BME280;46113;50.130;8.526;2023-04-21T05:59:48;98787.56;;;8.43;69.01
27685;BME280;46113;50.130;8.526;2023-04-21T06:02:20;98785.44;;;8.66;67.54
27685;BME280;46113;50.130;8.526;2023-04-21T06:04:48;98791.13;;;7.77;70.49
27685;BME280;46113;50.130;8.526;2023-04-21T06:07:16;98781.94;;;8.65;68.29
27685;BME280;46113;50.130;8.526;2023-04-21T06:09:55;98783.44;;;8.22;69.59
27685;BME280;46113;50.130;8.526;2023-04-21T06:12:27;98788.84;;;8.68;68.27
27685;BME280;46113;50.130;8.526;2023-04-21T06:14:57;98793.41;;;8.80;66.32
27685;BME280;46113;50.130;8.526;2023-04-21T06:17:29;98789.81;;;7.68;68.75
27685;BME280;46113;50.130;8.526;2023-04-21T06:19:56;98794.91;;;8.05;68.48
27685;BME280;46113;50.130;8.526;2023-04-21T06:22:26;98794.91;;;8.05;68.52
27685;BME280;46113;50.130;8.526;2023-04-21T06:24:53;98796.53;;;8.24;69.25
27685;BME280;46113;50.130;8.526;2023-04-21T06:27:23;98793.81;;;8.26;70.07
27685;BME280;46113;50.130;8.526;2023-04-21T06:29:53;98799.53;;;7.84;70.14
27685;BME280;46113;50.130;8.526;2023-04-21T06:32:23;98797.28;;;8.26;69.32
27685;BME280;46113;50.130;8.526;2023-04-21T06:34:50;98804.50;;;8.39;68.67
27685;BME280;46113;50.130;8.526;2023-04-21T06:37:20;98805.72;;;8.49;68.39
27685;BME280;46113;50.130;8.526;2023-04-21T06:39:47;98801.53;;;8.45;68.28
27685;BME280;46113;50.130;8.526;2023-04-21T06:42:14;98804.34;;;8.58;67.90
27685;BME280;46113;50.130;8.526;2023-04-21T06:44:41;98797.91;;;8.47;68.21
27685;BME280;46113;50.130;8.526;2023-04-21T06:47:08;98795.75;;;8.54;68.23
27685;BME280;46113;50.130;8.526;2023-04-21T06:49:35;98793.78;;;8.42;69.04
27685;BME280;46113;50.130;8.526;2023-04-21T06:52:07;98792.16;;;8.71;68.60
27685;BME280;46113;50.130;8.526;2023-04-21T06:54:34;98797.94;;;8.46;68.64
27685;BME280;46113;50.130;8.526;2023-04-21T06:57:01;98789.53;;;8.55;67.60
27685;BME280;46113;50.130;8.526;2023-04-21T06:59:29;98795.31;;;7.97;71.63
27685;BME280;46113;50.130;8.526;2023-04-21T07:01:56;98792.00;;;8.26;70.11
27685;BME280;46113;50.130;8.526;2023-04-21T07:04:23;98799.16;;;8.56;70.19
27685;BME280;46113;50.130;8.526;2023-04-21T07:06:50;98802.56;;;8.58;69.65
27685;BME280;46113;50.130;8.526;2023-04-21T07:09:17;98793.78;;;8.42;71.40
27685;BME280;46113;50.130;8.526;2023-04-21T07:11:44;98790.00;;;8.78;71.08
27685;BME280;46113;50.130;8.526;2023-04-21T07:14:12;98785.06;;;9.48;69.21
27685;BME280;46113;50.130;8.526;2023-04-21T07:16:39;98789.53;;;9.16;69.54
27685;BME280;46113;50.130;8.526;2023-04-21T07:19:06;98785.38;;;10.29;65.58
27685;BME280;46113;50.130;8.526;2023-04-21T07:21:33;98788.34;;;10.09;65.61
27685;BME280;46113;50.130;8.526;2023-04-21T07:24:02;98784.44;;;9.88;63.94
27685;BME280;46113;50.130;8.526;2023-04-21T07:26:29;98785.19;;;10.59;63.37
27685;BME280;46113;50.130;8.526;2023-04-21T07:28:57;98781.63;;;10.73;62.47
27685;BME280;46113;50.130;8.526;2023-04-21T07:31:26;98780.75;;;10.73;60.64
27685;BME280;46113;50.130;8.526;2023-04-21T07:33:53;98781.00;;;9.56;63.62
27685;BME280;46113;50.130;8.526;2023-04-21T07:36:20;98772.34;;;9.98;64.23
27685;BME280;46113;50.130;8.526;2023-04-21T07:38:47;98778.31;;;10.29;62.57
27685;BME280;46113;50.130;8.526;2023-04-21T07:41:14;98780.91;;;10.44;62.21
27685;BME280;46113;50.130;8.526;2023-04-21T07:43:40;98778.44;;;10.13;63.64
27685;BME280;46113;50.130;8.526;2023-04-21T07:46:07;98778.00;;;10.34;64.65
27685;BME280;46113;50.130;8.526;2023-04-21T07:48:34;98784.91;;;9.80;65.96
27685;BME280;46113;50.130;8.526;2023-04-21T07:51:01;98791.72;;;10.26;65.35
27685;BME280;46113;50.130;8.526;2023-04-21T07:53:29;98791.31;;;10.32;65.26
27685;BME280;46113;50.130;8.526;2023-04-21T07:55:57;98791.16;;;10.21;62.45
27685;BME280;46113;50.130;8.526;2023-04-21T07:58:24;98786.94;;;10.46;64.01
27685;BME280;46113;50.130;8.526;2023-04-21T08:00:51;98783.09;;;10.37;64.81
27685;BME280;46113;50.130;8.526;2023-04-21T08:03:17;98784.59;;;10.96;60.91
27685;BME280;46113;50.130;8.526;2023-04-21T08:05:47;98779.53;;;11.45;60.45
27685;BME280;46113;50.130;8.526;2023-04-21T08:08:14;98781.88;;;11.50;61.26
27685;BME280;46113;50.130;8.526;2023-04-21T08:10:45;98778.09;;;12.04;57.28
27685;BME280;46113;50.130;8.526;2023-04-21T08:13:12;98788.25;;;11.98;56.57
27685;BME280;46113;50.130;8.526;2023-04-21T08:15:39;98785.53;;;12.61;57.31
27685;BME280;46113;50.130;8.526;2023-04-21T08:18:12;98788.81;;;12.65;54.98
27685;BME280;46113;50.130;8.526;2023-04-21T08:23:50;98783.06;;;10.52;58.90
27685;BME280;46113;50.130;8.526;2023-04-21T08:26:19;98775.38;;;11.80;58.12
27685;BME280;46113;50.130;8.526;2023-04-21T08:28:50;98773.59;;;11.54;57.92
27685;BME280;46113;50.130;8.526;2023-04-21T08:31:18;98776.13;;;11.69;59.12
27685;BME280;46113;50.130;8.526;2023-04-21T08:33:46;98785.94;;;11.93;57.13
27685;BME280;46113;50.130;8.526;2023-04-21T08:36:51;98781.31;;;12.21;55.43
27685;BME280;46113;50.130;8.526;2023-04-21T08:39:18;98773.34;;;12.94;55.01
27685;BME280;46113;50.130;8.526;2023-04-21T08:41:46;98779.44;;;12.48;55.64
27685;BME280;46113;50.130;8.526;2023-04-21T08:44:44;98779.03;;;12.41;54.63
27685;BME280;46113;50.130;8.526;2023-04-21T08:47:12;98779.84;;;12.17;55.66
27685;BME280;46113;50.130;8.526;2023-04-21T08:49:40;98784.19;;;11.16;57.06
27685;BME280;46113;50.130;8.526;2023-04-21T08:52:08;98783.13;;;11.31;58.18
27685;BME280;46113;50.130;8.526;2023-04-21T08:54:34;98780.59;;;11.30;57.81
27685;BME280;46113;50.130;8.526;2023-04-21T08:57:02;98788.84;;;11.12;59.35
27685;BME280;46113;50.130;8.526;2023-04-21T08:59:40;98792.56;;;10.54;60.88
27685;BME280;46113;50.130;8.526;2023-04-21T09:02:13;98787.81;;;10.87;60.16
27685;BME280;46113;50.130;8.526;2023-04-21T09:04:46;98779.41;;;11.47;61.39
27685;BME280;46113;50.130;8.526;2023-04-21T09:07:33;98778.19;;;11.90;58.44
27685;BME280;46113;50.130;8.526;2023-04-21T09:10:03;98781.72;;;11.51;57.99
27685;BME280;46113;50.130;8.526;2023-04-21T09:12:30;98783.63;;;11.75;57.96
27685;BME280;46113;50.130;8.526;2023-04-21T09:15:05;98771.94;;;11.91;58.04
27685;BME280;46113;50.130;8.526;2023-04-21T09:17:34;98774.53;;;12.54;54.71
27685;BME280;46113;50.130;8.526;2023-04-21T09:20:12;98771.66;;;11.57;55.44
27685;BME280;46113;50.130;8.526;2023-04-21T09:22:39;98781.63;;;11.53;57.17
27685;BME280;46113;50.130;8.526;2023-04-21T09:25:06;98782.81;;;11.36;56.05
27685;BME280;46113;50.130;8.526;2023-04-21T09:27:36;98776.63;;;11.87;56.10
27685;BME280;46113;50.130;8.526;2023-04-21T09:30:05;98769.03;;;11.57;55.87
27685;BME280;46113;50.130;8.526;2023-04-21T09:32:39;98774.75;;;11.37;56.46
27685;BME280;46113;50.130;8.526;2023-04-21T09:35:10;98763.28;;;11.76;55.28
27685;BME280;46113;50.130;8.526;2023-04-21T09:37:38;98779.97;;;12.02;55.18
27685;BME280;46113;50.130;8.526;2023-04-21T09:40:05;98773.22;;;11.72;59.00
27685;BME280;46113;50.130;8.526;2023-04-21T09:42:32;98782.78;;;11.62;57.18
27685;BME280;46113;50.130;8.526;2023-04-21T09:45:07;98775.72;;;12.26;55.61
27685;BME280;46113;50.130;8.526;2023-04-21T09:47:57;98769.53;;;11.88;54.74
27685;BME280;46113;50.130;8.526;2023-04-21T09:50:47;98768.38;;;11.66;57.02
27685;BME280;46113;50.130;8.526;2023-04-21T09:53:20;98768.06;;;13.06;53.26
27685;BME280;46113;50.130;8.526;2023-04-21T09:55:50;98758.28;;;12.35;51.87
27685;BME280;46113;50.130;8.526;2023-04-21T09:58:21;98757.00;;;13.12;52.40
27685;BME280;46113;50.130;8.526;2023-04-21T10:00:50;98747.50;;;13.78;51.82
27685;BME280;46113;50.130;8.526;2023-04-21T10:03:19;98765.53;;;13.63;50.56
27685;BME280;46113;50.130;8.526;2023-04-21T10:05:50;98754.59;;;13.09;50.92
27685;BME280;46113;50.130;8.526;2023-04-21T10:08:17;98757.09;;;12.75;51.80
27685;BME280;46113;50.130;8.526;2023-04-21T10:10:44;98752.72;;;11.63;54.65
27685;BME280;46113;50.130;8.526;2023-04-21T10:13:13;98750.91;;;12.98;52.22
27685;BME280;46113;50.130;8.526;2023-04-21T10:15:42;98754.88;;;12.93;52.04
27685;BME280;46113;50.130;8.526;2023-04-21T10:18:22;98748.72;;;12.92;50.49
27685;BME280;46113;50.130;8.526;2023-04-21T10:21:07;98745.94;;;12.94;52.87
27685;BME280;46113;50.130;8.526;2023-04-21T10:23:42;98744.03;;;12.96;51.45
27685;BME280;46113;50.130;8.526;2023-04-21T10:26:20;98747.75;;;12.09;53.56
27685;BME280;46113;50.130;8.526;2023-04-21T10:28:51;98743.53;;;11.93;54.22
27685;BME280;46113;50.130;8.526;2023-04-21T10:31:30;98743.38;;;12.45;55.58
27685;BME280;46113;50.130;8.526;2023-04-21T10:36:50;98736.47;;;12.78;54.91
27685;BME280;46113;50.130;8.526;2023-04-21T10:39:35;98735.78;;;13.35;51.34
27685;BME280;46113;50.130;8.526;2023-04-21T10:44:43;98726.53;;;13.05;53.31
27685;BME280;46113;50.130;8.526;2023-04-21T10:47:10;98729.38;;;13.15;52.14
27685;BME280;46113;50.130;8.526;2023-04-21T10:49:38;98723.47;;;13.45;50.98
27685;BME280;46113;50.130;8.526;2023-04-21T10:52:07;98718.84;;;13.82;51.51
27685;BME280;46113;50.130;8.526;2023-04-21T10:54:42;98718.50;;;13.63;51.63
27685;BME280;46113;50.130;8.526;2023-04-21T10:57:16;98723.53;;;14.12;49.75
27685;BME280;46113;50.130;8.526;2023-04-21T10:59:44;98719.28;;;14.21;49.65
27685;BME280;46113;50.130;8.526;2023-04-21T11:02:13;98715.38;;;13.58;50.17
27685;BME280;46113;50.130;8.526;2023-04-21T11:04:42;98716.91;;;13.95;49.72
27685;BME280;46113;50.130;8.526;2023-04-21T11:07:24;98699.66;;;13.78;48.54
27685;BME280;46113;50.130;8.526;2023-04-21T11:10:05;98699.50;;;14.47;49.12
27685;BME280;46113;50.130;8.526;2023-04-21T11:12:36;98707.38;;;13.92;51.21
27685;BME280;46113;50.130;8.526;2023-04-21T11:15:06;98704.66;;;13.48;50.04
27685;BME280;46113;50.130;8.526;2023-04-21T11:17:34;98707.28;;;13.60;50.34
27685;BME280;46113;50.130;8.526;2023-04-21T11:20:02;98703.50;;;13.97;47.71
27685;BME280;46113;50.130;8.526;2023-04-21T11:22:32;98697.28;;;13.41;49.48
27685;BME280;46113;50.130;8.526;2023-04-21T11:24:59;98693.56;;;13.99;47.80
27685;BME280;46113;50.130;8.526;2023-04-21T11:27:27;98692.94;;;12.81;50.68
27685;BME280;46113;50.130;8.526;2023-04-21T11:29:56;98688.47;;;13.29;48.60
27685;BME280;46113;50.130;8.526;2023-04-21T11:32:23;98688.59;;;13.50;49.90
27685;BME280;46113;50.130;8.526;2023-04-21T11:34:50;98680.59;;;13.27;49.95
27685;BME280;46113;50.130;8.526;2023-04-21T11:37:26;98669.28;;;13.25;51.18
27685;BME280;46113;50.130;8.526;2023-04-21T11:39:58;98669.97;;;13.27;48.31
27685;BME280;46113;50.130;8.526;2023-04-21T11:42:26;98660.63;;;13.67;48.44
27685;BME280;46113;50.130;8.526;2023-04-21T11:44:54;98663.16;;;13.80;50.56
27685;BME280;46113;50.130;8.526;2023-04-21T11:47:24;98657.09;;;14.34;48.25
27685;BME280;46113;50.130;8.526;2023-04-21T11:49:54;98658.41;;;13.95;48.07
27685;BME280;46113;50.130;8.526;2023-04-21T11:54:58;98655.03;;;13.93;48.38
27685;BME280;46113;50.130;8.526;2023-04-21T11:57:27;98647.19;;;14.57;47.72
27685;BME280;46113;50.130;8.526;2023-04-21T11:59:57;98646.56;;;14.96;46.84
27685;BME280;46113;50.130;8.526;2023-04-21T12:02:29;98652.34;;;14.58;45.77
27685;BME280;46113;50.130;8.526;2023-04-21T12:05:14;98638.13;;;14.91;45.85
27685;BME280;46113;50.130;8.526;2023-04-21T12:07:44;98637.28;;;15.12;45.16
27685;BME280;46113;50.130;8.526;2023-04-21T12:10:21;98640.03;;;15.31;45.55
27685;BME280;46113;50.130;8.526;2023-04-21T12:12:48;98635.31;;;15.14;45.07
27685;BME280;46113;50.130;8.526;2023-04-21T12:15:19;98629.03;;;15.75;43.68
27685;BME280;46113;50.130;8.526;2023-04-21T12:17:50;98625.19;;;14.86;44.57
27685;BME280;46113;50.130;8.526;2023-04-21T12:20:22;98614.97;;;15.03;43.72
27685;BME280;46113;50.130;8.526;2023-04-21T12:22:50;98625.38;;;14.63;44.28
27685;BME280;46113;50.130;8.526;2023-04-21T12:25:18;98622.16;;;14.48;44.93
27685;BME280;46113;50.130;8.526;2023-04-21T12:30:15;98627.50;;;14.48;45.87
27685;BME280;46113;50.130;8.526;2023-04-21T12:32:42;98613.03;;;14.41;44.27
27685;BME280;46113;50.130;8.526;2023-04-21T12:35:09;98609.66;;;14.60;44.47
27685;BME280;46113;50.130;8.526;2023-04-21T12:37:36;98609.97;;;14.67;43.84
27685;BME280;46113;50.130;8.526;2023-04-21T12:40:03;98609.19;;;14.76;44.23
27685;BME280;46113;50.130;8.526;2023-04-21T12:42:31;98610.81;;;14.67;44.43
27685;BME280;46113;50.130;8.526;2023-04-21T12:44:59;98609.72;;;14.70;43.96
27685;BME280;46113;50.130;8.526;2023-04-21T12:47:26;98618.63;;;14.90;43.62
27685;BME280;46113;50.130;8.526;2023-04-21T12:49:53;98614.25;;;14.37;43.33
27685;BME280;46113;50.130;8.526;2023-04-21T12:52:20;98609.78;;;14.58;42.79
27685;BME280;46113;50.130;8.526;2023-04-21T12:54:47;98607.59;;;14.42;45.25
27685;BME280;46113;50.130;8.526;2023-04-21T12:57:14;98602.53;;;14.39;44.27
27685;BME280;46113;50.130;8.526;2023-04-21T12:59:41;98580.31;;;14.71;44.94
27685;BME280;46113;50.130;8.526;2023-04-21T13:02:11;98577.66;;;14.71;43.99
27685;BME280;46113;50.130;8.526;2023-04-21T13:04:38;98594.13;;;14.65;44.33
27685;BME280;46113;50.130;8.526;2023-04-21T13:07:08;98595.91;;;14.86;42.48
27685;BME280;46113;50.130;8.526;2023-04-21T13:09:34;98582.00;;;14.51;42.09
27685;BME280;46113;50.130;8.526;2023-04-21T13:12:01;98571.03;;;14.66;41.83
27685;BME280;46113;50.130;8.526;2023-04-21T13:14:35;98576.97;;;14.27;43.04
27685;BME280;46113;50.130;8.526;2023-04-21T13:17:02;98578.69;;;14.38;42.73
27685;BME280;46113;50.130;8.526;2023-04-21T13:19:29;98575.78;;;14.62;43.79
27685;BME280;46113;50.130;8.526;2023-04-21T13:21:56;98573.84;;;14.22;42.28
27685;BME280;46113;50.130;8.526;2023-04-21T13:24:23;98572.16;;;14.42;42.71
27685;BME280;46113;50.130;8.526;2023-04-21T13:26:52;98568.34;;;14.35;42.95
27685;BME280;46113;50.130;8.526;2023-04-21T13:29:19;98562.69;;;14.49;43.04
27685;BME280;46113;50.130;8.526;2023-04-21T13:31:46;98556.41;;;14.60;42.87